Time,TemperatureF,DewpointF,PressureIn,WindDirection,WindDirectionDegrees,WindSpeedMPH,WindSpeedGustMPH,Humidity,HourlyPrecipIn,Conditions,Clouds,dailyrainin,SoftwareType,DateUTC
2013-03-23 00:00:00,30.3,24.6,30.04,West,276,0.0,0.0,79,0.00,,,0.00,Wunderground v.1.15,2013-03-23 04:00:00,
2013-03-23 00:05:00,30.1,24.4,30.04,West,276,0.0,0.0,79,0.00,,,0.00,Wunderground v.1.15,2013-03-23 04:05:00,
2013-03-23 00:10:00,30.0,24.6,30.04,West,276,0.0,0.0,80,0.00,,,0.00,Wunderground v.1.15,2013-03-23 04:10:00,
2013-03-23 00:15:00,29.8,24.4,30.04,West,276,0.0,0.0,80,0.00,,,0.00,Wunderground v.1.15,2013-03-23 04:15:00,
2013-03-23 00:20:00,29.7,24.3,30.04,West,276,0.0,0.0,80,0.00,,,0.00,Wunderground v.1.15,2013-03-23 04:20:00,
2013-03-23 00:25:00,29.5,24.4,30.04,West,276,0.0,0.0,81,0.00,,,0.00,Wunderground v.1.15,2013-03-23 04:25:00,
2013-03-23 00:35:00,29.2,24.1,30.04,West,276,0.0,0.0,81,0.00,,,0.00,Wunderground v.1.15,2013-03-23 04:35:00,
2013-03-23 00:40:00,29.1,24.3,30.04,West,276,0.0,0.0,82,0.00,,,0.00,Wunderground v.1.15,2013-03-23 04:40:00,
2013-03-23 00:45:00,29.0,24.2,30.04,West,276,0.0,0.0,82,0.00,,,0.00,Wunderground v.1.15,2013-03-23 04:45:00,
2013-03-23 00:50:00,28.9,24.1,30.04,West,276,0.0,0.0,82,0.00,,,0.00,Wunderground v.1.15,2013-03-23 04:50:00,
2013-03-23 01:00:00,28.8,24.3,30.04,West,276,0.0,0.0,83,0.00,,,0.00,Wunderground v.1.15,2013-03-23 05:00:00,
2013-03-23 01:05:00,28.8,24.6,30.04,West,276,0.0,0.0,84,0.00,,,0.00,Wunderground v.1.15,2013-03-23 05:05:00,
2013-03-23 01:15:00,28.9,24.7,30.04,West,276,0.0,0.0,84,0.00,,,0.00,Wunderground v.1.15,2013-03-23 05:15:00,
2013-03-23 01:20:00,29.0,25.1,30.04,West,276,0.0,0.0,85,0.00,,,0.00,Wunderground v.1.15,2013-03-23 05:20:00,
2013-03-23 01:25:00,29.1,25.2,30.04,West,276,0.0,0.0,85,0.00,,,0.00,Wunderground v.1.15,2013-03-23 05:25:00,
2013-03-23 01:30:00,29.2,25.3,30.04,West,276,0.0,0.0,85,0.00,,,0.00,Wunderground v.1.15,2013-03-23 05:30:00,
2013-03-23 01:40:00,29.4,25.4,30.04,West,276,0.0,0.0,85,0.00,,,0.00,Wunderground v.1.15,2013-03-23 05:40:00,
2013-03-23 01:45:00,29.6,25.6,30.04,West,276,0.0,0.0,85,0.00,,,0.00,Wunderground v.1.15,2013-03-23 05:45:00,
2013-03-23 01:50:00,29.7,25.7,30.04,West,276,0.0,0.0,85,0.00,,,0.00,Wunderground v.1.15,2013-03-23 05:50:00,
2013-03-23 01:55:00,29.9,25.9,30.04,West,276,0.0,0.0,85,0.00,,,0.00,Wunderground v.1.15,2013-03-23 05:55:00,
2013-03-23 02:05:00,30.2,26.2,30.04,West,276,0.0,0.0,85,0.00,,,0.00,Wunderground v.1.15,2013-03-23 06:05:00,
2013-03-23 02:15:00,30.5,26.5,30.04,West,276,0.0,0.0,85,0.00,,,0.00,Wunderground v.1.15,2013-03-23 06:15:00,
2013-03-23 02:20:00,30.6,26.6,30.04,West,276,0.0,0.0,85,0.00,,,0.00,Wunderground v.1.15,2013-03-23 06:20:00,
2013-03-23 02:25:00,30.7,26.7,30.03,West,276,0.0,0.0,85,0.00,,,0.00,Wunderground v.1.15,2013-03-23 06:25:00,
2013-03-23 02:30:00,30.9,26.9,30.03,West,276,0.0,0.0,85,0.00,,,0.00,Wunderground v.1.15,2013-03-23 06:30:00,
2013-03-23 02:35:00,31.0,27.0,30.03,West,276,0.0,0.0,85,0.00,,,0.00,Wunderground v.1.15,2013-03-23 06:35:00,
2013-03-23 02:45:00,31.2,27.2,30.03,West,276,0.0,0.0,85,0.00,,,0.00,Wunderground v.1.15,2013-03-23 06:45:00,
2013-03-23 02:50:00,31.3,27.3,30.02,West,276,0.0,0.0,85,0.00,,,0.00,Wunderground v.1.15,2013-03-23 06:50:00,
2013-03-23 02:55:00,31.4,27.4,30.02,West,276,0.0,0.0,85,0.00,,,0.00,Wunderground v.1.15,2013-03-23 06:55:00,
2013-03-23 03:00:00,31.5,27.5,30.02,West,276,0.0,0.0,85,0.00,,,0.00,Wunderground v.1.15,2013-03-23 07:00:00,
2013-03-23 03:05:00,31.6,27.6,30.02,West,276,0.0,0.0,85,0.00,,,0.00,Wunderground v.1.15,2013-03-23 07:05:00,
2013-03-23 03:15:00,31.8,27.8,30.02,West,276,0.0,0.0,85,0.00,,,0.00,Wunderground v.1.15,2013-03-23 07:15:00,
2013-03-23 03:20:00,31.9,27.9,30.02,West,276,0.0,0.0,85,0.00,,,0.00,Wunderground v.1.15,2013-03-23 07:20:00,
2013-03-23 03:25:00,32.0,28.0,30.02,West,276,0.0,0.0,85,0.00,,,0.00,Wunderground v.1.15,2013-03-23 07:25:00,
2013-03-23 03:30:00,32.0,28.0,30.02,West,276,0.0,0.0,85,0.00,,,0.00,Wunderground v.1.15,2013-03-23 07:30:00,
2013-03-23 03:40:00,32.1,28.1,30.02,West,276,0.0,0.0,85,0.00,,,0.00,Wunderground v.1.15,2013-03-23 07:40:00,
2013-03-23 03:45:00,32.3,28.6,30.02,West,276,0.0,0.0,86,0.00,,,0.00,Wunderground v.1.15,2013-03-23 07:45:00,
2013-03-23 03:50:00,32.4,28.7,30.02,West,276,0.0,0.0,86,0.00,,,0.00,Wunderground v.1.15,2013-03-23 07:50:00,
2013-03-23 03:55:00,32.5,28.8,30.02,West,276,0.0,0.0,86,0.00,,,0.00,Wunderground v.1.15,2013-03-23 07:55:00,
2013-03-23 04:05:00,32.7,29.0,30.02,West,276,0.0,0.0,86,0.00,,,0.00,Wunderground v.1.15,2013-03-23 08:05:00,
2013-03-23 04:15:00,32.9,29.2,30.01,West,276,0.0,0.0,86,0.00,,,0.00,Wunderground v.1.15,2013-03-23 08:15:00,
2013-03-23 04:20:00,33.0,29.3,30.02,West,276,0.0,0.0,86,0.00,,,0.00,Wunderground v.1.15,2013-03-23 08:20:00,
2013-03-23 04:25:00,33.1,29.4,30.02,West,276,0.0,0.0,86,0.00,,,0.00,Wunderground v.1.15,2013-03-23 08:25:00,
2013-03-23 04:30:00,33.2,29.5,30.02,North,360,0.0,0.0,86,0.00,,,0.00,Wunderground v.1.15,2013-03-23 08:30:00,
2013-03-23 04:35:00,33.3,29.6,30.02,North,360,0.0,0.0,86,0.00,,,0.00,Wunderground v.1.15,2013-03-23 08:35:00,
2013-03-23 04:45:00,33.5,29.5,30.02,North,360,0.0,0.0,85,0.00,,,0.00,Wunderground v.1.15,2013-03-23 08:45:00,
2013-03-23 04:50:00,33.6,29.9,30.01,North,360,0.0,0.0,86,0.00,,,0.00,Wunderground v.1.15,2013-03-23 08:50:00,
2013-03-23 04:55:00,33.9,29.9,30.02,North,360,0.0,0.0,85,0.00,,,0.00,Wunderground v.1.15,2013-03-23 08:55:00,
2013-03-23 05:00:00,34.0,30.0,30.02,North,360,0.0,0.0,85,0.00,,,0.00,Wunderground v.1.15,2013-03-23 09:00:00,
2013-03-23 05:05:00,34.1,30.1,30.02,North,360,0.0,0.0,85,0.00,,,0.00,Wunderground v.1.15,2013-03-23 09:05:00,
2013-03-23 05:15:00,34.4,30.4,30.03,North,360,0.0,0.0,85,0.00,,,0.00,Wunderground v.1.15,2013-03-23 09:15:00,
2013-03-23 05:20:00,34.4,30.4,30.03,North,360,0.0,0.0,85,0.00,,,0.00,Wunderground v.1.15,2013-03-23 09:20:00,
2013-03-23 05:25:00,34.4,30.6,30.02,North,360,0.0,0.0,86,0.00,,,0.00,Wunderground v.1.15,2013-03-23 09:25:00,
2013-03-23 05:30:00,34.6,30.8,30.02,North,360,0.0,0.0,86,0.00,,,0.00,Wunderground v.1.15,2013-03-23 09:30:00,
2013-03-23 05:35:00,34.7,30.9,30.02,North,360,0.0,0.0,86,0.00,,,0.00,Wunderground v.1.15,2013-03-23 09:35:00,
2013-03-23 05:45:00,35.0,31.2,30.03,North,360,0.0,0.0,86,0.00,,,0.00,Wunderground v.1.15,2013-03-23 09:45:00,
2013-03-23 05:50:00,35.1,31.0,30.03,North,360,0.0,0.0,85,0.00,,,0.00,Wunderground v.1.15,2013-03-23 09:50:00,
2013-03-23 05:55:00,35.1,31.0,30.03,North,360,0.0,0.0,85,0.00,,,0.00,Wunderground v.1.15,2013-03-23 09:55:00,
2013-03-23 06:05:00,35.0,30.7,30.03,North,360,0.0,0.0,84,0.00,,,0.00,Wunderground v.1.15,2013-03-23 10:05:00,
2013-03-23 06:15:00,35.1,31.0,30.03,North,360,0.0,0.0,85,0.00,,,0.00,Wunderground v.1.15,2013-03-23 10:15:00,
2013-03-23 06:25:00,35.2,31.1,30.03,North,360,0.0,0.0,85,0.00,,,0.00,Wunderground v.1.15,2013-03-23 10:25:00,
2013-03-23 06:30:00,35.3,31.2,30.03,North,360,0.0,0.0,85,0.00,,,0.00,Wunderground v.1.15,2013-03-23 10:30:00,
2013-03-23 06:35:00,35.3,30.9,30.04,North,360,0.0,0.0,84,0.00,,,0.00,Wunderground v.1.15,2013-03-23 10:35:00,
2013-03-23 06:45:00,35.4,31.0,30.05,North,360,0.0,0.0,84,0.00,,,0.00,Wunderground v.1.15,2013-03-23 10:45:00,
2013-03-23 06:50:00,35.4,31.0,30.05,North,360,0.0,0.0,84,0.00,,,0.00,Wunderground v.1.15,2013-03-23 10:50:00,
2013-03-23 06:55:00,35.3,30.9,30.05,North,360,0.0,0.0,84,0.00,,,0.00,Wunderground v.1.15,2013-03-23 10:55:00,
2013-03-23 07:00:00,35.3,30.9,30.05,North,360,0.0,0.0,84,0.00,,,0.00,Wunderground v.1.15,2013-03-23 11:00:00,
2013-03-23 07:05:00,35.2,30.9,30.05,North,360,0.0,0.0,84,0.00,,,0.00,Wunderground v.1.15,2013-03-23 11:05:00,
2013-03-23 07:15:00,35.2,30.9,30.04,North,360,0.0,0.0,84,0.00,,,0.00,Wunderground v.1.15,2013-03-23 11:15:00,
2013-03-23 07:20:00,35.2,30.9,30.04,North,360,0.0,0.0,84,0.00,,,0.00,Wunderground v.1.15,2013-03-23 11:20:00,
2013-03-23 07:25:00,35.1,30.8,30.05,North,360,0.0,0.0,84,0.00,,,0.00,Wunderground v.1.15,2013-03-23 11:25:00,
2013-03-23 07:30:00,35.0,30.7,30.06,North,360,0.0,0.0,84,0.00,,,0.00,Wunderground v.1.15,2013-03-23 11:30:00,
2013-03-23 07:35:00,34.8,30.5,30.06,North,360,0.0,0.0,84,0.00,,,0.00,Wunderground v.1.15,2013-03-23 11:35:00,
2013-03-23 07:40:00,34.8,30.5,30.06,North,360,0.0,0.0,84,0.00,,,0.00,Wunderground v.1.15,2013-03-23 11:40:00,
2013-03-23 07:50:00,34.7,30.7,30.05,North,360,0.0,0.0,85,0.00,,,0.00,Wunderground v.1.15,2013-03-23 11:50:00,
2013-03-23 07:55:00,34.7,30.7,30.05,North,360,0.0,0.0,85,0.00,,,0.00,Wunderground v.1.15,2013-03-23 11:55:00,
2013-03-23 08:00:00,35.0,31.2,30.05,North,360,0.0,0.0,86,0.00,,,0.00,Wunderground v.1.15,2013-03-23 12:00:00,
2013-03-23 08:05:00,35.1,31.3,30.05,North,360,0.0,0.0,86,0.00,,,0.00,Wunderground v.1.15,2013-03-23 12:05:00,
2013-03-23 08:15:00,35.5,31.7,30.05,North,360,0.0,0.0,86,0.00,,,0.00,Wunderground v.1.15,2013-03-23 12:15:00,
2013-03-23 08:25:00,36.0,31.9,30.06,North,360,0.0,0.0,85,0.00,,,0.00,Wunderground v.1.15,2013-03-23 12:25:00,
2013-03-23 08:30:00,36.1,31.7,30.06,North,360,0.0,0.0,84,0.00,,,0.00,Wunderground v.1.15,2013-03-23 12:30:00,
2013-03-23 08:35:00,36.3,31.6,30.06,North,360,0.0,0.0,83,0.00,,,0.00,Wunderground v.1.15,2013-03-23 12:35:00,
2013-03-23 08:45:00,37.0,31.1,30.06,North,360,0.0,0.0,79,0.00,,,0.00,Wunderground v.1.15,2013-03-23 12:45:00,
2013-03-23 08:50:00,37.4,30.2,30.07,North,360,0.0,0.0,75,0.00,,,0.00,Wunderground v.1.15,2013-03-23 12:50:00,
2013-03-23 08:55:00,37.9,30.0,30.06,North,360,0.0,0.0,73,0.00,,,0.00,Wunderground v.1.15,2013-03-23 12:55:00,
2013-03-23 09:05:00,38.9,29.9,30.08,North,360,0.0,0.0,70,0.00,,,0.00,Wunderground v.1.15,2013-03-23 13:05:00,
2013-03-23 09:15:00,39.9,28.3,30.07,NW,321,0.0,0.0,63,0.00,,,0.00,Wunderground v.1.15,2013-03-23 13:15:00,
2013-03-23 09:20:00,40.5,28.5,30.07,NW,320,0.0,0.0,62,0.00,,,0.00,Wunderground v.1.15,2013-03-23 13:20:00,
2013-03-23 09:25:00,41.2,28.4,30.06,NW,318,0.0,0.0,60,0.00,,,0.00,Wunderground v.1.15,2013-03-23 13:25:00,
2013-03-23 09:30:00,41.9,27.8,30.06,WSW,252,0.0,0.0,57,0.00,,,0.00,Wunderground v.1.15,2013-03-23 13:30:00,
2013-03-23 09:35:00,42.4,27.8,30.06,WSW,257,0.0,0.0,56,0.00,,,0.00,Wunderground v.1.15,2013-03-23 13:35:00,
2013-03-23 09:45:00,43.4,26.9,30.07,WSW,257,0.0,0.0,52,0.00,,,0.00,Wunderground v.1.15,2013-03-23 13:45:00,
2013-03-23 09:50:00,43.8,26.3,30.07,WSW,257,0.0,0.0,50,0.00,,,0.00,Wunderground v.1.15,2013-03-23 13:50:00,
2013-03-23 09:55:00,44.3,25.8,30.06,WSW,257,0.0,0.0,48,0.00,,,0.00,Wunderground v.1.15,2013-03-23 13:55:00,
2013-03-23 10:05:00,45.1,25.5,30.07,WSW,257,0.0,0.0,46,0.00,,,0.00,Wunderground v.1.15,2013-03-23 14:05:00,
2013-03-23 10:15:00,45.7,25.0,30.07,SW,235,0.0,0.0,44,0.00,,,0.00,Wunderground v.1.15,2013-03-23 14:15:00,
2013-03-23 10:25:00,46.0,24.7,30.08,SW,236,0.0,0.0,43,0.00,,,0.00,Wunderground v.1.15,2013-03-23 14:25:00,
2013-03-23 10:30:00,46.1,25.4,30.08,NNW,327,0.0,0.0,44,0.00,,,0.00,Wunderground v.1.15,2013-03-23 14:30:00,
2013-03-23 10:35:00,46.2,25.5,30.08,NNW,327,0.0,0.0,44,0.00,,,0.00,Wunderground v.1.15,2013-03-23 14:35:00,
2013-03-23 10:40:00,46.3,24.4,30.08,NW,324,0.0,0.0,42,0.00,,,0.00,Wunderground v.1.15,2013-03-23 14:40:00,
2013-03-23 10:45:00,46.5,24.6,30.07,North,350,1.0,2.0,42,0.00,,,0.00,Wunderground v.1.15,2013-03-23 14:45:00,
2013-03-23 10:50:00,46.7,25.9,30.08,NNW,343,0.0,1.0,44,0.00,,,0.00,Wunderground v.1.15,2013-03-23 14:50:00,
2013-03-23 10:55:00,46.8,24.9,30.08,NW,323,0.0,1.0,42,0.00,,,0.00,Wunderground v.1.15,2013-03-23 14:55:00,
2013-03-23 11:00:00,46.7,24.8,30.08,NW,323,0.0,0.0,42,0.00,,,0.00,Wunderground v.1.15,2013-03-23 15:00:00,
2013-03-23 11:05:00,46.7,25.9,30.08,NW,323,0.0,0.0,44,0.00,,,0.00,Wunderground v.1.15,2013-03-23 15:05:00,
2013-03-23 11:15:00,46.6,24.7,30.07,East,92,0.0,0.0,42,0.00,,,0.00,Wunderground v.1.15,2013-03-23 15:15:00,
2013-03-23 11:25:00,46.6,23.5,30.07,West,281,0.0,0.0,40,0.00,,,0.00,Wunderground v.1.15,2013-03-23 15:25:00,
2013-03-23 11:30:00,46.6,24.1,30.07,WNW,289,0.0,1.0,41,0.00,,,0.00,Wunderground v.1.15,2013-03-23 15:30:00,
2013-03-23 11:40:00,46.6,24.1,30.07,SW,218,0.0,1.0,41,0.00,,,0.00,Wunderground v.1.15,2013-03-23 15:40:00,
2013-03-23 11:45:00,46.7,23.0,30.07,SW,218,0.0,1.0,39,0.00,,,0.00,Wunderground v.1.15,2013-03-23 15:45:00,
2013-03-23 11:50:00,46.8,24.3,30.07,West,278,0.0,0.0,41,0.00,,,0.00,Wunderground v.1.15,2013-03-23 15:50:00,
2013-03-23 11:55:00,47.0,23.9,30.07,NW,321,0.0,0.0,40,0.00,,,0.00,Wunderground v.1.15,2013-03-23 15:55:00,
2013-03-23 12:00:00,47.2,23.5,30.07,NW,323,0.0,0.0,39,0.00,,,0.00,Wunderground v.1.15,2013-03-23 16:00:00,
2013-03-23 12:05:00,47.3,23.6,30.07,NW,309,0.0,0.0,39,0.00,,,0.00,Wunderground v.1.15,2013-03-23 16:05:00,
2013-03-23 12:15:00,47.2,22.9,30.07,NW,319,1.0,1.0,38,0.00,,,0.00,Wunderground v.1.15,2013-03-23 16:15:00,
2013-03-23 12:20:00,47.3,22.9,30.07,NW,319,0.0,1.0,38,0.00,,,0.00,Wunderground v.1.15,2013-03-23 16:20:00,
2013-03-23 12:25:00,47.3,22.9,30.06,NW,319,0.0,2.0,38,0.00,,,0.00,Wunderground v.1.15,2013-03-23 16:25:00,
2013-03-23 12:30:00,47.4,23.0,30.06,NW,317,0.0,0.0,38,0.00,,,0.00,Wunderground v.1.15,2013-03-23 16:30:00,
2013-03-23 12:35:00,47.8,23.4,30.06,NW,316,0.0,1.0,38,0.00,,,0.00,Wunderground v.1.15,2013-03-23 16:35:00,
2013-03-23 12:40:00,48.2,23.7,30.05,NW,314,0.0,1.0,38,0.00,,,0.00,Wunderground v.1.15,2013-03-23 16:40:00,
2013-03-23 12:45:00,48.8,24.3,30.05,NW,314,0.0,1.0,38,0.00,,,0.00,Wunderground v.1.15,2013-03-23 16:45:00,
2013-03-23 12:50:00,49.3,24.1,30.05,NW,315,0.0,0.0,37,0.00,,,0.00,Wunderground v.1.15,2013-03-23 16:50:00,
2013-03-23 12:55:00,49.6,25.0,30.05,NW,315,0.0,0.0,38,0.00,,,0.00,Wunderground v.1.15,2013-03-23 16:55:00,
2013-03-23 13:00:00,49.9,24.0,30.05,NW,315,0.0,0.0,36,0.00,,,0.00,Wunderground v.1.15,2013-03-23 17:00:00,
2013-03-23 13:05:00,50.1,24.8,30.04,NW,315,0.0,0.0,37,0.00,,,0.00,Wunderground v.1.15,2013-03-23 17:05:00,
2013-03-23 13:15:00,50.6,25.3,30.04,NW,315,0.0,1.0,37,0.00,,,0.00,Wunderground v.1.15,2013-03-23 17:15:00,
2013-03-23 13:20:00,50.7,24.0,30.04,NNW,331,0.0,0.0,35,0.00,,,0.00,Wunderground v.1.15,2013-03-23 17:20:00,
2013-03-23 13:25:00,50.7,24.7,30.04,NNW,333,0.0,0.0,36,0.00,,,0.00,Wunderground v.1.15,2013-03-23 17:25:00,
2013-03-23 13:35:00,50.7,24.7,30.04,NNW,335,0.0,1.0,36,0.00,,,0.00,Wunderground v.1.15,2013-03-23 17:35:00,
2013-03-23 13:40:00,50.7,24.0,30.04,WNW,284,0.0,0.0,35,0.00,,,0.00,Wunderground v.1.15,2013-03-23 17:40:00,
2013-03-23 13:45:00,50.6,25.3,30.03,WNW,284,0.0,0.0,37,0.00,,,0.00,Wunderground v.1.15,2013-03-23 17:45:00,
2013-03-23 13:50:00,50.7,24.7,30.03,NW,306,1.0,1.0,36,0.00,,,0.00,Wunderground v.1.15,2013-03-23 17:50:00,
2013-03-23 13:55:00,50.5,25.2,30.03,NW,309,1.0,1.0,37,0.00,,,0.00,Wunderground v.1.15,2013-03-23 17:55:00,
2013-03-23 14:00:00,50.5,23.8,30.03,NW,318,0.0,0.0,35,0.00,,,0.00,Wunderground v.1.15,2013-03-23 18:00:00,
2013-03-23 14:05:00,50.7,24.7,30.03,NW,318,1.0,1.0,36,0.00,,,0.00,Wunderground v.1.15,2013-03-23 18:05:00,
2013-03-23 14:15:00,50.9,25.5,30.02,NE,34,0.0,1.0,37,0.00,,,0.00,Wunderground v.1.15,2013-03-23 18:15:00,
2013-03-23 14:20:00,51.2,25.1,30.02,NW,311,1.0,1.0,36,0.00,,,0.00,Wunderground v.1.15,2013-03-23 18:20:00,
2013-03-23 14:25:00,51.5,24.7,30.02,WNW,302,1.0,1.0,35,0.00,,,0.00,Wunderground v.1.15,2013-03-23 18:25:00,
2013-03-23 14:30:00,51.6,24.8,30.01,West,275,1.0,1.0,35,0.00,,,0.00,Wunderground v.1.15,2013-03-23 18:30:00,
2013-03-23 14:35:00,51.6,25.5,30.01,West,281,1.0,1.0,36,0.00,,,0.00,Wunderground v.1.15,2013-03-23 18:35:00,
2013-03-23 14:40:00,51.9,25.8,30.01,West,280,1.0,1.0,36,0.00,,,0.00,Wunderground v.1.15,2013-03-23 18:40:00,
2013-03-23 14:45:00,52.0,25.8,30.01,South,170,1.0,1.0,36,0.00,,,0.00,Wunderground v.1.15,2013-03-23 18:45:00,
2013-03-23 14:50:00,52.2,26.0,30.01,SW,229,1.0,1.0,36,0.00,,,0.00,Wunderground v.1.15,2013-03-23 18:50:00,
2013-03-23 14:55:00,52.2,26.7,30.00,West,259,1.0,2.0,37,0.00,,,0.00,Wunderground v.1.15,2013-03-23 18:55:00,
2013-03-23 15:00:00,52.3,25.4,30.00,NW,312,1.0,2.0,35,0.00,,,0.00,Wunderground v.1.15,2013-03-23 19:00:00,
2013-03-23 15:05:00,52.3,26.8,30.00,WNW,300,1.0,2.0,37,0.00,,,0.00,Wunderground v.1.15,2013-03-23 19:05:00,
2013-03-23 15:15:00,52.4,26.9,30.00,SE,139,1.0,2.0,37,0.00,,,0.00,Wunderground v.1.15,2013-03-23 19:15:00,
2013-03-23 15:20:00,52.6,27.7,30.00,WNW,286,1.0,3.0,38,0.00,,,0.00,Wunderground v.1.15,2013-03-23 19:20:00,
2013-03-23 15:25:00,52.6,27.0,29.99,WSW,254,1.0,3.0,37,0.00,,,0.00,Wunderground v.1.15,2013-03-23 19:25:00,
2013-03-23 15:30:00,52.7,27.8,29.99,NNW,337,1.0,1.0,38,0.00,,,0.00,Wunderground v.1.15,2013-03-23 19:30:00,
2013-03-23 15:35:00,52.9,28.0,29.99,SSW,206,1.0,1.0,38,0.00,,,0.00,Wunderground v.1.15,2013-03-23 19:35:00,
2013-03-23 15:40:00,53.3,27.7,29.98,ESE,122,1.0,1.0,37,0.00,,,0.00,Wunderground v.1.15,2013-03-23 19:40:00,
2013-03-23 15:50:00,53.5,29.1,29.98,WNW,299,1.0,1.0,39,0.00,,,0.00,Wunderground v.1.15,2013-03-23 19:50:00,
2013-03-23 15:55:00,53.3,29.6,29.97,WNW,299,1.0,1.0,40,0.00,,,0.00,Wunderground v.1.15,2013-03-23 19:55:00,
2013-03-23 16:00:00,53.3,29.6,29.97,WNW,295,0.0,0.0,40,0.00,,,0.00,Wunderground v.1.15,2013-03-23 20:00:00,
2013-03-23 16:05:00,53.5,29.7,29.97,West,280,1.0,3.0,40,0.00,,,0.00,Wunderground v.1.15,2013-03-23 20:05:00,
2013-03-23 16:15:00,53.6,30.4,29.97,West,269,1.0,1.0,41,0.00,,,0.00,Wunderground v.1.15,2013-03-23 20:15:00,
2013-03-23 16:20:00,53.6,31.0,29.96,West,270,1.0,1.0,42,0.00,,,0.00,Wunderground v.1.15,2013-03-23 20:20:00,
2013-03-23 16:25:00,54.0,32.6,29.97,WSW,248,1.0,1.0,44,0.00,,,0.00,Wunderground v.1.15,2013-03-23 20:25:00,
2013-03-23 16:35:00,54.5,31.3,29.97,South,180,1.0,3.0,41,0.00,,,0.00,Wunderground v.1.15,2013-03-23 20:35:00,
2013-03-23 16:40:00,54.5,31.3,29.96,WNW,283,1.0,2.0,41,0.00,,,0.00,Wunderground v.1.15,2013-03-23 20:40:00,
2013-03-23 16:45:00,54.8,32.1,29.96,SE,142,1.0,2.0,42,0.00,,,0.00,Wunderground v.1.15,2013-03-23 20:45:00,
2013-03-23 16:50:00,55.3,32.6,29.96,SSE,159,2.0,2.0,42,0.00,,,0.00,Wunderground v.1.15,2013-03-23 20:50:00,
2013-03-23 16:55:00,55.6,32.2,29.96,NW,315,1.0,2.0,41,0.00,,,0.00,Wunderground v.1.15,2013-03-23 20:55:00,
2013-03-23 17:00:00,55.6,32.2,29.96,SW,217,1.0,1.0,41,0.00,,,0.00,Wunderground v.1.15,2013-03-23 21:00:00,
2013-03-23 17:05:00,55.4,31.5,29.97,SE,143,2.0,2.0,40,0.00,,,0.00,Wunderground v.1.15,2013-03-23 21:05:00,
2013-03-23 17:15:00,55.2,31.9,29.97,WSW,254,1.0,2.0,41,0.00,,,0.00,Wunderground v.1.15,2013-03-23 21:15:00,
2013-03-23 17:20:00,55.0,31.7,29.97,NW,319,1.0,1.0,41,0.00,,,0.00,Wunderground v.1.15,2013-03-23 21:20:00,
2013-03-23 17:25:00,54.7,32.0,29.97,NW,325,1.0,3.0,42,0.00,,,0.00,Wunderground v.1.15,2013-03-23 21:25:00,
2013-03-23 17:30:00,54.6,32.5,29.96,NW,325,1.0,1.0,43,0.00,,,0.00,Wunderground v.1.15,2013-03-23 21:30:00,
2013-03-23 17:35:00,54.6,31.3,29.94,NW,324,0.0,1.0,41,0.00,,,0.00,Wunderground v.1.15,2013-03-23 21:35:00,
2013-03-23 17:45:00,54.8,32.1,29.95,WNW,296,1.0,1.0,42,0.00,,,0.00,Wunderground v.1.15,2013-03-23 21:45:00,
2013-03-23 17:50:00,55.0,32.3,29.95,West,259,2.0,2.0,42,0.00,,,0.00,Wunderground v.1.15,2013-03-23 21:50:00,
2013-03-23 17:55:00,55.1,32.4,29.94,NW,314,1.0,2.0,42,0.00,,,0.00,Wunderground v.1.15,2013-03-23 21:55:00,
2013-03-23 18:00:00,54.9,31.6,29.94,NW,314,1.0,1.0,41,0.00,,,0.00,Wunderground v.1.15,2013-03-23 22:00:00,
2013-03-23 18:05:00,55.1,32.4,29.94,NW,315,0.0,2.0,42,0.00,,,0.00,Wunderground v.1.15,2013-03-23 22:05:00,
2013-03-23 18:15:00,55.5,32.2,29.94,SSE,156,1.0,2.0,41,0.00,,,0.00,Wunderground v.1.15,2013-03-23 22:15:00,
2013-03-23 18:20:00,55.7,32.3,29.94,South,185,1.0,1.0,41,0.00,,,0.00,Wunderground v.1.15,2013-03-23 22:20:00,
2013-03-23 18:25:00,55.8,32.4,29.94,West,276,1.0,1.0,41,0.00,,,0.00,Wunderground v.1.15,2013-03-23 22:25:00,
2013-03-23 18:30:00,56.1,32.7,29.93,West,273,1.0,1.0,41,0.00,,,0.00,Wunderground v.1.15,2013-03-23 22:30:00,
2013-03-23 18:35:00,56.2,32.2,29.93,WNW,291,1.0,1.0,40,0.00,,,0.00,Wunderground v.1.15,2013-03-23 22:35:00,
2013-03-23 18:45:00,55.6,32.2,29.93,WSW,257,1.0,1.0,41,0.00,,,0.00,Wunderground v.1.15,2013-03-23 22:45:00,
2013-03-23 18:55:00,54.9,32.2,29.93,WSW,257,0.0,0.0,42,0.00,,,0.00,Wunderground v.1.15,2013-03-23 22:55:00,
2013-03-23 19:00:00,54.6,32.5,29.93,WSW,257,0.0,0.0,43,0.00,,,0.00,Wunderground v.1.15,2013-03-23 23:00:00,
2013-03-23 19:05:00,54.3,32.3,29.93,WSW,257,0.0,0.0,43,0.00,,,0.00,Wunderground v.1.15,2013-03-23 23:05:00,
2013-03-23 19:15:00,53.6,32.8,29.93,WSW,257,0.0,0.0,45,0.00,,,0.00,Wunderground v.1.15,2013-03-23 23:15:00,
2013-03-23 19:20:00,53.3,33.0,29.93,WSW,257,0.0,0.0,46,0.00,,,0.00,Wunderground v.1.15,2013-03-23 23:20:00,
2013-03-23 19:30:00,52.4,33.8,29.93,WSW,257,0.0,0.0,49,0.00,,,0.00,Wunderground v.1.15,2013-03-23 23:30:00,
2013-03-23 19:35:00,51.9,33.3,29.94,WSW,257,0.0,0.0,49,0.00,,,0.00,Wunderground v.1.15,2013-03-23 23:35:00,
2013-03-23 19:40:00,51.2,33.7,29.94,WSW,257,0.0,0.0,51,0.00,,,0.00,Wunderground v.1.15,2013-03-23 23:40:00,
2013-03-23 19:45:00,50.5,33.0,29.94,WSW,257,0.0,0.0,51,0.00,,,0.00,Wunderground v.1.15,2013-03-23 23:45:00,
2013-03-23 19:50:00,49.8,33.3,29.94,WSW,257,0.0,0.0,53,0.00,,,0.00,Wunderground v.1.15,2013-03-23 23:50:00,
2013-03-23 19:55:00,49.2,33.3,29.95,WSW,257,0.0,0.0,54,0.00,,,0.00,Wunderground v.1.15,2013-03-23 23:55:00,
2013-03-23 20:00:00,48.5,33.5,29.95,WSW,257,0.0,0.0,56,0.00,,,0.00,Wunderground v.1.15,2013-03-24 00:00:00,
2013-03-23 20:05:00,47.8,32.9,29.96,WSW,257,0.0,0.0,56,0.00,,,0.00,Wunderground v.1.15,2013-03-24 00:05:00,
2013-03-23 20:15:00,46.7,33.1,29.96,WSW,257,0.0,0.0,59,0.00,,,0.00,Wunderground v.1.15,2013-03-24 00:15:00,
2013-03-23 20:20:00,46.1,33.0,29.96,WSW,257,0.0,0.0,60,0.00,,,0.00,Wunderground v.1.15,2013-03-24 00:20:00,
2013-03-23 20:25:00,45.5,32.8,29.96,WSW,257,0.0,0.0,61,0.00,,,0.00,Wunderground v.1.15,2013-03-24 00:25:00,
2013-03-23 20:35:00,44.6,32.4,29.97,WSW,257,0.0,0.0,62,0.00,,,0.00,Wunderground v.1.15,2013-03-24 00:35:00,
2013-03-23 20:40:00,44.1,32.3,29.97,WSW,257,0.0,0.0,63,0.00,,,0.00,Wunderground v.1.15,2013-03-24 00:40:00,
2013-03-23 20:45:00,43.6,32.2,29.97,WSW,257,0.0,0.0,64,0.00,,,0.00,Wunderground v.1.15,2013-03-24 00:45:00,
2013-03-23 20:50:00,43.2,32.2,29.97,WSW,257,0.0,0.0,65,0.00,,,0.00,Wunderground v.1.15,2013-03-24 00:50:00,
2013-03-23 20:55:00,42.8,32.6,29.97,WSW,257,0.0,0.0,67,0.00,,,0.00,Wunderground v.1.15,2013-03-24 00:55:00,
2013-03-23 21:00:00,42.3,32.5,29.97,WSW,257,0.0,0.0,68,0.00,,,0.00,Wunderground v.1.15,2013-03-24 01:00:00,
2013-03-23 21:05:00,41.9,32.1,29.97,WSW,257,0.0,0.0,68,0.00,,,0.00,Wunderground v.1.15,2013-03-24 01:05:00,
2013-03-23 21:15:00,41.1,32.1,29.98,WSW,257,0.0,0.0,70,0.00,,,0.00,Wunderground v.1.15,2013-03-24 01:15:00,
2013-03-23 21:20:00,40.7,32.0,29.98,WSW,257,0.0,0.0,71,0.00,,,0.00,Wunderground v.1.15,2013-03-24 01:20:00,
2013-03-23 21:25:00,40.3,32.0,29.98,WSW,257,0.0,0.0,72,0.00,,,0.00,Wunderground v.1.15,2013-03-24 01:25:00,
2013-03-23 21:35:00,39.6,31.7,29.99,WSW,257,0.0,0.0,73,0.00,,,0.00,Wunderground v.1.15,2013-03-24 01:35:00,
2013-03-23 21:40:00,39.3,31.7,29.99,WSW,257,0.0,0.0,74,0.00,,,0.00,Wunderground v.1.15,2013-03-24 01:40:00,
2013-03-23 21:50:00,38.7,31.5,29.99,WSW,257,0.0,0.0,75,0.00,,,0.00,Wunderground v.1.15,2013-03-24 01:50:00,
2013-03-23 21:55:00,38.4,31.5,30.00,WSW,257,0.0,0.0,76,0.00,,,0.00,Wunderground v.1.15,2013-03-24 01:55:00,
2013-03-23 22:00:00,38.1,31.2,30.00,WSW,257,0.0,0.0,76,0.00,,,0.00,Wunderground v.1.15,2013-03-24 02:00:00,
2013-03-23 22:05:00,37.8,31.2,30.00,WSW,257,0.0,0.0,77,0.00,,,0.00,Wunderground v.1.15,2013-03-24 02:05:00,
2013-03-23 22:15:00,37.4,31.2,30.00,WSW,257,0.0,0.0,78,0.00,,,0.00,Wunderground v.1.15,2013-03-24 02:15:00,
2013-03-23 22:20:00,37.1,31.2,30.00,WSW,257,0.0,0.0,79,0.00,,,0.00,Wunderground v.1.15,2013-03-24 02:20:00,
2013-03-23 22:25:00,36.9,31.0,30.00,WSW,257,0.0,0.0,79,0.00,,,0.00,Wunderground v.1.15,2013-03-24 02:25:00,
2013-03-23 22:30:00,36.7,31.1,30.00,WSW,257,0.0,0.0,80,0.00,,,0.00,Wunderground v.1.15,2013-03-24 02:30:00,
2013-03-23 22:35:00,36.5,31.2,30.00,WSW,257,0.0,0.0,81,0.00,,,0.00,Wunderground v.1.15,2013-03-24 02:35:00,
2013-03-23 22:40:00,36.4,31.1,30.00,WSW,257,0.0,0.0,81,0.00,,,0.00,Wunderground v.1.15,2013-03-24 02:40:00,
2013-03-23 22:45:00,36.2,31.2,30.00,WSW,257,0.0,0.0,82,0.00,,,0.00,Wunderground v.1.15,2013-03-24 02:45:00,
2013-03-23 22:55:00,35.9,30.9,29.99,WSW,257,0.0,0.0,82,0.00,,,0.00,Wunderground v.1.15,2013-03-24 02:55:00,
2013-03-23 23:00:00,35.7,31.0,29.99,WSW,257,0.0,0.0,83,0.00,,,0.00,Wunderground v.1.15,2013-03-24 03:00:00,
2013-03-23 23:05:00,35.6,30.9,29.99,WSW,257,0.0,0.0,83,0.00,,,0.00,Wunderground v.1.15,2013-03-24 03:05:00,
2013-03-23 23:15:00,35.2,30.9,29.98,WSW,257,0.0,0.0,84,0.00,,,0.00,Wunderground v.1.15,2013-03-24 03:15:00,
2013-03-23 23:20:00,35.0,30.7,29.98,WSW,257,0.0,0.0,84,0.00,,,0.00,Wunderground v.1.15,2013-03-24 03:20:00,
2013-03-23 23:30:00,34.7,30.7,29.96,WSW,257,0.0,0.0,85,0.00,,,0.00,Wunderground v.1.15,2013-03-24 03:30:00,
2013-03-23 23:35:00,34.7,30.9,29.96,WSW,257,0.0,0.0,86,0.00,,,0.00,Wunderground v.1.15,2013-03-24 03:35:00,
2013-03-23 23:40:00,34.5,30.7,29.95,WSW,257,0.0,0.0,86,0.00,,,0.00,Wunderground v.1.15,2013-03-24 03:40:00,
2013-03-23 23:45:00,34.4,30.6,29.96,WSW,257,0.0,0.0,86,0.00,,,0.00,Wunderground v.1.15,2013-03-24 03:45:00,
2013-03-23 23:50:00,34.4,30.6,29.95,WSW,257,0.0,0.0,86,0.00,,,0.00,Wunderground v.1.15,2013-03-24 03:50:00,
2013-03-23 23:55:00,34.2,30.4,29.95,WSW,257,0.0,0.0,86,0.00,,,0.00,Wunderground v.1.15,2013-03-24 03:55:00,